Avon, CO

10:21 PM MDT on September 01, 2014 (GMT -0600)
WildRidge - Neighborhood | Change Station
CLOSE
Current Station
Personal Weather Station
Location: Avon, CO
Elevation: 8156 ft
Nearby Weather Stations

Elev 8156 ft 39.66 °N, 106.55 °W | Updated 1 minute ago

Clear
Clear
54.4 °F
Feels Like 54.4 °F
N
0.0
Wind Variable Wind from South
Gusts 1.0 mph

Today
High -- | Low -- °F
--% Chance of Precip.
Yesterday
High -- | Low -- °F
Precip. -- in
6:34 AM 7:37 PM
Waxing Crescent, 47% visible
Pressure 30.23 in
Visibility 10.0 miles
Clouds Clear
Dew Point 34 °F
Humidity 47%
Rainfall 0.00 in
Snow Depth 10 in , 87 in , 0 in
UV 0 out of 12
Pollen 9.90 out of 12
Air Quality Not available.
Flu Activity Not available.
METAR KEGE 020415Z AUTO 08006KT 10SM CLR 14/03 A3023 RMK AO1

More Conditions Fewer Conditions

Pressure 30.23 in
Visibility 10.0 miles
Clouds Clear
Dew Point 34 °F
Humidity 47%
Rainfall 0.00 in
Snow Depth 10 in , 87 in , 0 in
UV 0 out of 12
Pollen 9.90 out of 12
Air Quality Not available.
Flu Activity Not available.
METAR KEGE 020415Z AUTO 08006KT 10SM CLR 14/03 A3023 RMK AO1

More Conditions Fewer Conditions

10-Day Weather Forecast

Almanac

Astronomy

Sep. 01, 2014 Rise Set
Actual Time 6:34 AM MDT 7:37 PM MDT
Civil Twilight 6:06 AM MDT 8:04 PM MDT
Nautical Twilight 5:33 AM MDT 8:37 PM MDT
Astronomical Twilight 4:59 AM MDT 9:11 PM MDT
Moon 1:21 PM MDT (9/1) 11:41 PM MDT (9/1)
Length of Visible Light 13h 57m
Length of Day
13h 02m
Tomorrow will be 2m 30s shorter.
Waxing Crescent, 47% of the Moon is Illuminated
Sep 2
Waxing Crescent
Sep 2
First Quarter
Sep 8
Full
Sep 15
Last Quarter
Sep 24
New

Today's Extremes

State Highs State Lows

Community

WunderPhotos

Upload Photos

1,749,560 photos uploaded!

WunderBlogs® & News

Nearby

Snow Depth

Station Depth Elevation
Mccoy Park 10 in 9480 ft
Vail Mountain 87 in 10300 ft
Summit Ranch 0 in 9400 ft
Kiln 0 in 9600 ft
Nast Lake 0 in 8700 ft

Earthquake Activity

City Distance Mag. Time & Date
No recent earthquake activity has been reported nearby.
Minimum magnitude displayed is 2.5.

Coastal Water Temperatures

Place Temperature
No Stations Reporting

Nearby Weather Stations